createdAt,value
2018-04-14T00:00:00.708Z,88.45
2018-04-14T00:02:27.644Z,88.72
2018-04-14T00:04:54.569Z,88.80
2018-04-14T00:07:21.490Z,88.67
2018-04-14T00:09:48.379Z,88.74
2018-04-14T00:12:15.300Z,89.08
2018-04-14T00:14:42.989Z,89.12
2018-04-14T00:17:09.886Z,89.51
2018-04-14T00:19:36.861Z,88.67
2018-04-14T00:22:04.540Z,88.53
2018-04-14T00:24:31.416Z,88.38
2018-04-14T00:26:58.656Z,88.39
2018-04-14T00:29:25.542Z,87.89
2018-04-14T00:31:52.441Z,88.29
2018-04-14T00:34:19.392Z,87.95
2018-04-14T00:36:46.264Z,87.93
2018-04-14T00:39:13.432Z,87.94
2018-04-14T00:41:40.329Z,87.75
2018-04-14T00:44:07.278Z,88.17
2018-04-14T00:46:34.335Z,88.26
2018-04-14T00:49:01.207Z,88.40
2018-04-14T00:51:28.067Z,88.16
2018-04-14T00:53:56.025Z,87.93
2018-04-14T00:56:22.992Z,88.12
2018-04-14T00:58:50.615Z,87.86
2018-04-14T01:01:17.581Z,87.62
2018-04-14T01:03:44.802Z,87.70
2018-04-14T01:06:11.715Z,87.10
2018-04-14T01:08:38.584Z,87.79
2018-04-14T01:11:05.522Z,87.71
2018-04-14T01:13:32.392Z,87.73
2018-04-14T01:15:59.457Z,87.50
2018-04-14T01:18:26.316Z,87.88
2018-04-14T01:20:53.189Z,87.63
2018-04-14T01:23:20.182Z,88.30
2018-04-14T01:25:47.102Z,87.85
2018-04-14T01:28:14.060Z,87.50
2018-04-14T01:30:41.260Z,87.50
2018-04-14T01:33:08.201Z,87.54
2018-04-14T01:35:35.177Z,87.89
2018-04-14T01:38:02.836Z,87.85
2018-04-14T01:40:30.498Z,87.57
2018-04-14T01:42:58.160Z,88.14
2018-04-14T01:45:25.941Z,87.60
2018-04-14T01:47:52.920Z,87.08
2018-04-14T01:50:19.800Z,87.49
2018-04-14T01:52:46.764Z,87.41
2018-04-14T01:55:14.443Z,87.10
2018-04-14T01:57:41.356Z,86.96
2018-04-14T02:00:08.992Z,86.80
2018-04-14T02:02:35.921Z,86.88
2018-04-14T02:05:02.944Z,86.81
2018-04-14T02:07:29.907Z,86.98
2018-04-14T02:09:56.847Z,86.77
2018-04-14T02:12:23.829Z,86.92
2018-04-14T02:14:51.495Z,86.75
2018-04-14T02:17:18.425Z,87.04
2018-04-14T02:19:45.367Z,87.17
2018-04-14T02:22:12.619Z,87.42
2018-04-14T02:24:39.505Z,87.43
2018-04-14T02:27:06.391Z,87.02
2018-04-14T02:29:33.298Z,87.19
2018-04-14T02:32:00.229Z,87.25
2018-04-14T02:34:27.566Z,86.92
2018-04-14T02:36:54.462Z,86.53
2018-04-14T02:39:22.069Z,86.87
2018-04-14T02:41:49.021Z,86.76
2018-04-14T02:44:16.077Z,87.04
2018-04-14T02:46:42.984Z,87.27
2018-04-14T02:49:09.859Z,87.46
2018-04-14T02:51:36.812Z,87.46
2018-04-14T02:54:03.767Z,88.03
2018-04-14T02:56:30.840Z,88.18
2018-04-14T02:58:57.724Z,88.01
2018-04-14T03:01:24.614Z,88.37
2018-04-14T03:03:51.526Z,88.36
2018-04-14T03:06:18.457Z,88.12
2018-04-14T03:08:45.426Z,88.13
2018-04-14T03:11:12.301Z,88.07
2018-04-14T03:13:39.292Z,88.26
2018-04-14T03:16:06.229Z,88.25
2018-04-14T03:18:34.184Z,88.62
2018-04-14T03:21:01.797Z,88.58
2018-04-14T03:23:29.460Z,88.50
2018-04-14T03:25:56.374Z,88.44
2018-04-14T03:28:23.257Z,88.60
2018-04-14T03:30:50.180Z,88.78
2018-04-14T03:33:17.064Z,88.89
2018-04-14T03:35:44.034Z,88.93
2018-04-14T03:38:11.945Z,88.81
2018-04-14T03:40:38.877Z,88.71
2018-04-14T03:43:05.772Z,88.95
2018-04-14T03:45:32.763Z,88.40
2018-04-14T03:47:59.649Z,88.38
2018-04-14T03:50:26.617Z,87.99
2018-04-14T03:52:53.676Z,88.06
2018-04-14T03:55:22.183Z,88.15
2018-04-14T03:57:49.077Z,88.37
2018-04-14T04:00:15.961Z,88.05
2018-04-14T04:02:43.728Z,87.99
2018-04-14T04:05:10.711Z,87.85
2018-04-14T04:07:37.626Z,87.53
2018-04-14T04:10:05.308Z,87.98
2018-04-14T04:12:32.215Z,87.55
2018-04-14T04:14:59.137Z,87.68
2018-04-14T04:17:26.213Z,87.68
2018-04-14T04:20:12.094Z,87.73
2018-04-14T04:22:57.144Z,87.32
2018-04-14T04:25:41.689Z,88.07
2018-04-14T04:28:08.864Z,88.04
2018-04-14T04:30:35.759Z,88.19
2018-04-14T04:33:03.421Z,88.47
2018-04-14T04:35:31.093Z,88.88
2018-04-14T04:37:57.976Z,88.88
2018-04-14T04:40:24.860Z,88.93
2018-04-14T04:42:51.771Z,89.05
2018-04-14T04:45:18.784Z,88.95
2018-04-14T04:47:45.740Z,89.14
2018-04-14T04:50:12.621Z,89.18
2018-04-14T04:52:39.540Z,89.29
2018-04-14T04:55:06.421Z,89.65
2018-04-14T04:57:33.319Z,89.25
2018-04-14T05:00:00.287Z,89.38
2018-04-14T05:02:27.258Z,89.26
2018-04-14T05:04:54.241Z,89.12
2018-04-14T05:07:21.161Z,89.33
2018-04-14T05:09:48.080Z,89.35
2018-04-14T05:12:15.817Z,89.18
2018-04-14T05:14:42.745Z,88.89
2018-04-14T05:17:09.665Z,88.81
2018-04-14T05:19:36.982Z,88.69
2018-04-14T05:22:03.886Z,88.59
2018-04-14T05:24:30.905Z,88.75
2018-04-14T05:26:57.795Z,88.91
2018-04-14T05:29:24.972Z,88.87
2018-04-14T05:31:51.929Z,88.75
2018-04-14T05:34:18.800Z,88.47
2018-04-14T05:36:45.884Z,88.67
2018-04-14T05:39:12.768Z,88.42
2018-04-14T05:41:39.687Z,88.41
2018-04-14T05:44:06.672Z,88.40
2018-04-14T05:46:33.600Z,88.33
2018-04-14T05:49:00.663Z,88.32
2018-04-14T05:51:27.634Z,88.47
2018-04-14T05:53:54.516Z,88.59
2018-04-14T05:56:21.443Z,88.54
2018-04-14T05:58:49.068Z,88.23
2018-04-14T06:01:16.000Z,88.56
2018-04-14T06:03:42.941Z,88.52
2018-04-14T06:06:09.912Z,88.52
2018-04-14T06:08:36.793Z,88.70
2018-04-14T06:11:03.702Z,88.51
2018-04-14T06:13:30.704Z,88.39
2018-04-14T06:15:57.639Z,88.41
2018-04-14T06:18:24.552Z,88.25
2018-04-14T06:20:51.593Z,88.02
2018-04-14T06:23:18.620Z,88.30
2018-04-14T06:25:45.507Z,87.73
2018-04-14T06:28:13.226Z,87.92
2018-04-14T06:30:40.093Z,88.02
2018-04-14T06:33:07.281Z,88.04
2018-04-14T06:35:34.892Z,88.22
2018-04-14T06:38:01.789Z,88.34
2018-04-14T06:40:29.753Z,88.09
2018-04-14T06:42:57.433Z,88.21
2018-04-14T06:45:24.400Z,87.69
2018-04-14T06:47:51.369Z,88.04
2018-04-14T06:50:18.378Z,87.90
2018-04-14T06:52:45.334Z,87.69
2018-04-14T06:55:12.300Z,87.92
2018-04-14T06:57:39.207Z,87.78
2018-04-14T07:00:06.864Z,87.58
2018-04-14T07:02:34.541Z,87.62
2018-04-14T07:05:01.506Z,87.39
2018-04-14T07:07:28.381Z,87.13
2018-04-14T07:09:55.441Z,87.54
2018-04-14T07:12:23.864Z,86.72
2018-04-14T07:14:56.981Z,87.11
2018-04-14T07:17:23.930Z,86.71
2018-04-14T07:19:51.282Z,86.82
2018-04-14T07:22:18.576Z,86.92
2018-04-14T07:24:46.221Z,86.42
2018-04-14T07:27:13.137Z,86.36
2018-04-14T07:29:40.009Z,86.46
2018-04-14T07:32:06.929Z,86.73
2018-04-14T07:34:33.857Z,86.91
2018-04-14T07:37:00.791Z,87.02
2018-04-14T07:39:28.465Z,86.83
2018-04-14T07:41:55.334Z,87.51
2018-04-14T07:44:22.304Z,88.05
2018-04-14T07:46:50.443Z,87.62
2018-04-14T07:49:18.250Z,87.36
2018-04-14T07:51:46.060Z,86.92
2018-04-14T07:54:12.987Z,86.59
2018-04-14T07:56:39.909Z,86.61
2018-04-14T07:59:06.805Z,85.59
2018-04-14T08:01:33.731Z,84.82
2018-04-14T08:04:00.882Z,85.07
2018-04-14T08:06:28.081Z,85.31
2018-04-14T08:08:55.156Z,84.60
2018-04-14T08:11:22.108Z,84.75
2018-04-14T08:13:49.028Z,84.02
2018-04-14T08:16:15.925Z,84.26
2018-04-14T08:18:42.853Z,84.43
2018-04-14T08:21:09.806Z,84.72
2018-04-14T08:23:36.734Z,85.37
2018-04-14T08:26:03.686Z,84.76
2018-04-14T08:28:30.579Z,85.25
2018-04-14T08:30:57.536Z,85.20
2018-04-14T08:33:24.471Z,84.86
2018-04-14T08:35:51.412Z,85.35
2018-04-14T08:38:18.304Z,85.30
2018-04-14T08:40:45.280Z,85.52
2018-04-14T08:43:12.961Z,84.77
2018-04-14T08:45:41.197Z,84.97
2018-04-14T08:48:08.118Z,84.90
2018-04-14T08:50:35.083Z,84.69
2018-04-14T08:53:02.806Z,85.48
2018-04-14T08:55:30.554Z,85.45
2018-04-14T08:57:58.416Z,84.31
2018-04-14T09:00:26.040Z,85.02
2018-04-14T09:02:52.913Z,85.01
2018-04-14T09:05:19.990Z,84.88
2018-04-14T09:07:47.610Z,84.15
2018-04-14T09:10:14.501Z,84.33
2018-04-14T09:12:41.435Z,84.50
2018-04-14T09:15:14.451Z,84.15
2018-04-14T09:17:41.391Z,83.87
2018-04-14T09:20:08.337Z,83.95
2018-04-14T09:22:35.266Z,83.42
2018-04-14T09:25:02.251Z,83.86
2018-04-14T09:27:29.153Z,84.06
2018-04-14T09:29:56.822Z,84.19
2018-04-14T09:32:24.457Z,83.75
2018-04-14T09:34:51.415Z,83.67
2018-04-14T09:37:19.054Z,83.92
2018-04-14T09:39:46.297Z,83.40
2018-04-14T09:42:13.214Z,84.52
2018-04-14T09:44:40.089Z,83.89
2018-04-14T09:47:07.039Z,84.05
2018-04-14T09:49:33.974Z,83.94
2018-04-14T09:52:00.984Z,84.49
2018-04-14T09:54:27.900Z,84.42
2018-04-14T09:56:54.844Z,83.67
2018-04-14T09:59:21.767Z,83.03
2018-04-14T10:01:50.655Z,83.54
2018-04-14T10:04:17.655Z,83.41
2018-04-14T10:06:45.286Z,83.99
2018-04-14T10:09:12.214Z,83.85
2018-04-14T10:11:39.083Z,83.57
2018-04-14T10:14:06.006Z,84.36
2018-04-14T10:16:33.168Z,84.30
2018-04-14T10:19:00.092Z,83.92
2018-04-14T10:21:26.974Z,83.70
2018-04-14T10:23:53.940Z,84.49
2018-04-14T10:26:21.558Z,84.51
2018-04-14T10:28:48.474Z,84.52
2018-04-14T10:31:15.396Z,84.74
2018-04-14T10:33:43.058Z,84.55
2018-04-14T10:36:10.683Z,84.90
2018-04-14T10:38:37.617Z,85.01
2018-04-14T10:41:04.548Z,84.86
2018-04-14T10:43:31.415Z,84.57
2018-04-14T10:45:58.353Z,84.48
2018-04-14T10:48:25.234Z,84.53
2018-04-14T10:50:52.208Z,84.70
2018-04-14T10:53:19.153Z,84.56
2018-04-14T10:55:46.181Z,84.11
2018-04-14T10:58:16.009Z,84.65
2018-04-14T11:00:42.948Z,84.68
2018-04-14T11:03:09.856Z,85.06
2018-04-14T11:05:36.837Z,84.95
2018-04-14T11:08:04.476Z,85.04
2018-04-14T11:10:31.402Z,84.50
2018-04-14T11:12:58.332Z,84.99
2018-04-14T11:15:25.266Z,85.22
2018-04-14T11:17:52.201Z,85.15
2018-04-14T11:20:19.949Z,84.57
2018-04-14T11:22:47.574Z,84.07
2018-04-14T11:25:14.575Z,83.73
2018-04-14T11:27:42.207Z,83.33
2018-04-14T11:30:09.146Z,82.41
2018-04-14T11:32:36.065Z,82.43
2018-04-14T11:35:03.023Z,81.69
2018-04-14T11:37:29.951Z,82.17
2018-04-14T11:39:56.891Z,82.92
2018-04-14T11:42:23.785Z,81.18
2018-04-14T11:44:50.745Z,82.62
2018-04-14T11:47:18.368Z,82.33
2018-04-14T11:49:45.348Z,82.13
2018-04-14T11:52:13.033Z,82.27
2018-04-14T11:54:40.998Z,81.23
2018-04-14T11:57:09.485Z,81.85
2018-04-14T11:59:37.199Z,81.62
2018-04-14T12:02:04.191Z,82.52
2018-04-14T12:04:31.862Z,81.48
2018-04-14T12:06:59.472Z,81.94
2018-04-14T12:09:26.542Z,81.55
2018-04-14T12:11:54.210Z,81.45
2018-04-14T12:14:21.108Z,82.31
2018-04-14T12:16:48.036Z,82.39
2018-04-14T12:19:16.052Z,82.45
2018-04-14T12:21:43.002Z,82.79
2018-04-14T12:24:09.911Z,83.14
2018-04-14T12:26:39.354Z,82.70
2018-04-14T12:29:06.282Z,82.80
2018-04-14T12:31:33.211Z,82.32
2018-04-14T12:34:00.188Z,82.26
2018-04-14T12:36:27.130Z,82.12
2018-04-14T12:38:54.045Z,81.73
2018-04-14T12:41:20.991Z,81.92
2018-04-14T12:43:47.876Z,82.47
2018-04-14T12:46:14.792Z,82.30
2018-04-14T12:48:41.657Z,82.36
2018-04-14T12:51:08.624Z,82.09
2018-04-14T12:53:35.496Z,81.60
2018-04-14T12:56:03.129Z,81.78
2018-04-14T12:58:30.086Z,81.80
2018-04-14T13:00:57.040Z,79.85
2018-04-14T13:03:23.982Z,79.91
2018-04-14T13:05:50.921Z,79.62
2018-04-14T13:08:17.799Z,78.57
2018-04-14T13:10:45.461Z,77.85
2018-04-14T13:13:13.090Z,77.62
2018-04-14T13:15:40.011Z,78.04
2018-04-14T13:18:06.925Z,76.71
2018-04-14T13:20:34.212Z,76.89
2018-04-14T13:23:01.075Z,77.20
2018-04-14T13:25:28.063Z,76.55
2018-04-14T13:27:55.785Z,76.87
2018-04-14T13:30:22.659Z,77.39
2018-04-14T13:32:51.261Z,76.58
2018-04-14T13:35:18.919Z,76.97
2018-04-14T13:37:46.529Z,77.18
2018-04-14T13:40:13.416Z,77.69
2018-04-14T13:42:40.335Z,77.50
2018-04-14T13:45:07.221Z,78.54
2018-04-14T13:47:34.933Z,79.07
2018-04-14T13:50:02.430Z,77.70
2018-04-14T13:52:30.136Z,77.59
2018-04-14T13:54:57.029Z,78.05
2018-04-14T13:57:23.968Z,78.30
2018-04-14T13:59:50.845Z,75.63
2018-04-14T14:02:20.405Z,74.99
2018-04-14T14:04:47.281Z,74.15
2018-04-14T14:07:14.285Z,73.46
2018-04-14T14:09:41.144Z,73.34
2018-04-14T14:12:08.220Z,73.87
2018-04-14T14:14:35.916Z,72.78
2018-04-14T14:17:02.936Z,73.64
2018-04-14T14:19:30.688Z,75.12
2018-04-14T14:21:57.580Z,75.56
2018-04-14T14:24:24.567Z,76.03
2018-04-14T14:26:51.453Z,76.32
2018-04-14T14:29:18.432Z,76.29
2018-04-14T14:31:45.305Z,76.36
2018-04-14T14:34:12.283Z,75.94
2018-04-14T14:36:39.900Z,76.03
2018-04-14T14:39:06.818Z,76.26
2018-04-14T14:41:33.689Z,76.44
2018-04-14T14:44:00.617Z,75.89
2018-04-14T14:46:27.598Z,75.80
2018-04-14T14:48:54.528Z,75.47
2018-04-14T14:51:21.492Z,76.02
2018-04-14T14:53:48.413Z,76.20
2018-04-14T14:56:15.730Z,75.93
2018-04-14T14:58:43.434Z,75.73
2018-04-14T15:01:10.732Z,75.30
2018-04-14T15:03:37.751Z,76.31
2018-04-14T15:06:06.443Z,75.78
2018-04-14T15:08:33.380Z,76.22
2018-04-14T15:11:00.265Z,75.67
2018-04-14T15:13:27.184Z,76.04
2018-04-14T15:15:54.145Z,75.24
2018-04-14T15:18:21.064Z,74.89
2018-04-14T15:20:48.024Z,74.45
2018-04-14T15:23:14.951Z,74.25
2018-04-14T15:25:42.012Z,75.11
2018-04-14T15:28:08.957Z,75.31
2018-04-14T15:30:35.873Z,75.35
2018-04-14T15:33:02.774Z,75.16
2018-04-14T15:35:29.692Z,74.80
2018-04-14T15:37:56.567Z,74.62
2018-04-14T15:40:23.484Z,74.50
2018-04-14T15:42:50.378Z,74.40
2018-04-14T15:45:19.395Z,74.48
2018-04-14T15:47:46.622Z,74.35
2018-04-14T15:50:14.589Z,74.21
2018-04-14T15:52:42.269Z,74.69
2018-04-14T15:55:09.271Z,74.20
2018-04-14T15:57:36.363Z,74.49
2018-04-14T16:00:04.931Z,74.10
2018-04-14T16:02:33.568Z,74.75
2018-04-14T16:05:00.494Z,74.38
2018-04-14T16:07:27.424Z,74.95
2018-04-14T16:09:54.360Z,74.42
2018-04-14T16:12:21.999Z,74.56
2018-04-14T16:14:53.798Z,74.68
2018-04-14T16:17:21.418Z,74.27
2018-04-14T16:19:48.334Z,74.70
2018-04-14T16:22:15.347Z,74.41
2018-04-14T16:24:43.034Z,74.23
2018-04-14T16:27:10.092Z,73.52
2018-04-14T16:29:36.978Z,73.05
2018-04-14T16:32:03.972Z,72.97
2018-04-14T16:34:30.865Z,73.06
2018-04-14T16:36:58.445Z,73.50
2018-04-14T16:39:25.475Z,73.58
2018-04-14T16:41:52.530Z,73.09
2018-04-14T16:44:20.129Z,73.15
2018-04-14T16:46:47.786Z,72.58
2018-04-14T16:49:15.443Z,73.11
2018-04-14T16:51:45.335Z,72.49
2018-04-14T16:54:12.215Z,72.62
2018-04-14T16:56:39.890Z,72.67
2018-04-14T16:59:06.823Z,72.17
2018-04-14T17:01:34.524Z,72.36
2018-04-14T17:04:01.569Z,73.19
2018-04-14T17:06:28.503Z,72.79
2018-04-14T17:08:55.436Z,73.26
2018-04-14T17:11:23.148Z,72.90
2018-04-14T17:13:50.018Z,72.97
2018-04-14T17:16:17.007Z,73.97
2018-04-14T17:18:43.876Z,73.66
2018-04-14T17:21:10.846Z,73.61
2018-04-14T17:23:37.826Z,74.19
2018-04-14T17:26:04.797Z,73.88
2018-04-14T17:28:32.325Z,74.85
2018-04-14T17:30:59.985Z,74.20
2018-04-14T17:33:27.201Z,75.06
2018-04-14T17:35:54.134Z,74.81
2018-04-14T17:38:21.063Z,74.83
2018-04-14T17:40:47.953Z,74.95
2018-04-14T17:43:14.857Z,74.80
2018-04-14T17:45:41.732Z,75.53
2018-04-14T17:48:09.380Z,75.42
2018-04-14T17:50:36.257Z,75.62
2018-04-14T17:53:03.230Z,75.51
2018-04-14T17:55:30.845Z,74.35
2018-04-14T17:57:57.755Z,75.70
2018-04-14T18:00:24.667Z,75.81
2018-04-14T18:02:51.626Z,76.77
2018-04-14T18:05:19.240Z,77.15
2018-04-14T18:07:46.175Z,76.22
2018-04-14T18:10:13.904Z,76.44
2018-04-14T18:12:41.683Z,76.81
2018-04-14T18:15:08.551Z,77.03
2018-04-14T18:17:35.565Z,76.89
2018-04-14T18:20:02.600Z,77.20
2018-04-14T18:22:29.564Z,77.84
2018-04-14T18:24:58.099Z,77.97
2018-04-14T18:27:24.976Z,77.89
2018-04-14T18:29:53.013Z,78.09
2018-04-14T18:32:19.877Z,78.37
2018-04-14T18:34:46.787Z,78.41
2018-04-14T18:37:13.753Z,78.04
2018-04-14T18:39:40.840Z,78.66
2018-04-14T18:42:07.766Z,79.02
2018-04-14T18:44:34.722Z,78.80
2018-04-14T18:47:01.652Z,79.04
2018-04-14T18:49:28.655Z,78.94
2018-04-14T18:51:55.734Z,78.62
2018-04-14T18:54:22.656Z,78.65
2018-04-14T18:56:49.580Z,78.24
2018-04-14T18:59:17.240Z,79.01
2018-04-14T19:01:44.144Z,78.85
2018-04-14T19:04:11.135Z,78.70
2018-04-14T19:06:38.759Z,78.77
2018-04-14T19:09:05.742Z,78.83
2018-04-14T19:11:33.440Z,79.05
2018-04-14T19:14:00.345Z,79.06
2018-04-14T19:16:27.960Z,79.05
2018-04-14T19:18:55.050Z,78.82
2018-04-14T19:21:22.021Z,78.68
2018-04-14T19:23:49.624Z,78.90
2018-04-14T19:26:16.700Z,79.37
2018-04-14T19:28:43.834Z,79.16
2018-04-14T19:31:10.723Z,79.35
2018-04-14T19:33:37.640Z,80.01
2018-04-14T19:36:05.991Z,79.74
2018-04-14T19:38:33.448Z,79.24
2018-04-14T19:41:00.420Z,79.49
2018-04-14T19:43:28.024Z,79.52
2018-04-14T19:45:54.936Z,79.88
2018-04-14T19:48:22.103Z,79.72
2018-04-14T19:50:49.858Z,79.07
2018-04-14T19:53:16.742Z,78.98
2018-04-14T19:55:43.750Z,79.21
2018-04-14T19:58:10.702Z,78.81
2018-04-14T20:00:37.698Z,78.86
2018-04-14T20:03:04.613Z,79.64
2018-04-14T20:05:32.292Z,79.28
2018-04-14T20:07:59.236Z,79.15
2018-04-14T20:10:26.185Z,79.35
2018-04-14T20:12:53.058Z,78.86
2018-04-14T20:15:20.026Z,79.05
2018-04-14T20:17:46.897Z,78.57
2018-04-14T20:20:14.557Z,78.80
2018-04-14T20:22:41.526Z,78.54
2018-04-14T20:25:08.635Z,78.77
2018-04-14T20:27:35.504Z,78.70
2018-04-14T20:30:03.198Z,79.29
2018-04-14T20:32:30.105Z,78.62
2018-04-14T20:34:57.278Z,79.44
2018-04-14T20:37:24.898Z,80.23
2018-04-14T20:39:51.819Z,80.26
2018-04-14T20:42:18.727Z,80.23
2018-04-14T20:44:46.587Z,80.79
2018-04-14T20:47:14.183Z,80.92
2018-04-14T20:49:41.056Z,81.61
2018-04-14T20:52:07.967Z,82.23
2018-04-14T20:54:34.869Z,82.48
2018-04-14T20:57:01.776Z,82.44
2018-04-14T20:59:29.029Z,82.38
2018-04-14T21:01:56.698Z,81.75
2018-04-14T21:04:23.627Z,82.12
2018-04-14T21:06:50.876Z,81.39
2018-04-14T21:09:17.805Z,81.88
2018-04-14T21:11:44.725Z,81.68
2018-04-14T21:14:11.605Z,81.55
2018-04-14T21:16:38.564Z,82.00
2018-04-14T21:19:05.454Z,82.07
2018-04-14T21:21:32.354Z,81.98
2018-04-14T21:23:59.303Z,82.73
2018-04-14T21:26:26.413Z,82.88
2018-04-14T21:28:53.343Z,82.73
2018-04-14T21:31:20.279Z,82.52
2018-04-14T21:33:47.216Z,82.42
2018-04-14T21:36:14.148Z,82.43
2018-04-14T21:38:41.068Z,82.15
2018-04-14T21:41:08.741Z,81.89
2018-04-14T21:43:35.607Z,82.27
2018-04-14T21:46:02.543Z,82.77
2018-04-14T21:48:29.518Z,83.12
2018-04-14T21:50:56.488Z,83.14
2018-04-14T21:53:23.513Z,82.84
2018-04-14T21:55:50.441Z,82.80
2018-04-14T21:58:17.306Z,82.21
2018-04-14T22:00:44.243Z,82.18
2018-04-14T22:03:11.107Z,82.00
2018-04-14T22:05:38.049Z,82.05
2018-04-14T22:08:04.945Z,81.79
2018-04-14T22:10:31.832Z,82.44
2018-04-14T22:12:58.745Z,82.83
2018-04-14T22:15:25.828Z,82.88
2018-04-14T22:17:53.595Z,83.28
2018-04-14T22:20:20.471Z,83.47
2018-04-14T22:22:48.321Z,83.21
2018-04-14T22:25:15.249Z,83.05
2018-04-14T22:27:42.111Z,83.22
2018-04-14T22:30:09.041Z,83.28
2018-04-14T22:32:35.973Z,83.57
2018-04-14T22:35:02.943Z,83.75
2018-04-14T22:37:29.845Z,84.00
2018-04-14T22:39:56.763Z,84.37
2018-04-14T22:42:24.661Z,84.39
2018-04-14T22:44:51.578Z,84.93
2018-04-14T22:47:19.184Z,84.71
2018-04-14T22:49:46.154Z,84.68
2018-04-14T22:52:13.021Z,85.04
2018-04-14T22:54:40.675Z,85.72
2018-04-14T22:57:07.544Z,85.80
2018-04-14T22:59:35.307Z,85.50
2018-04-14T23:02:02.940Z,85.62
2018-04-14T23:04:29.909Z,85.77
2018-04-14T23:06:57.569Z,85.58
2018-04-14T23:09:25.272Z,85.66
2018-04-14T23:11:52.243Z,85.71
2018-04-14T23:14:19.232Z,85.84
2018-04-14T23:16:46.854Z,85.83
2018-04-14T23:19:13.905Z,85.46
2018-04-14T23:21:40.777Z,85.58
2018-04-14T23:24:07.894Z,85.91
2018-04-14T23:26:35.652Z,86.12
2018-04-14T23:29:02.566Z,86.07
2018-04-14T23:31:30.175Z,86.18
2018-04-14T23:33:58.118Z,86.00
2018-04-14T23:36:24.988Z,86.10
2018-04-14T23:38:51.902Z,85.77
2018-04-14T23:41:18.829Z,85.92
2018-04-14T23:43:46.527Z,86.00
2018-04-14T23:46:13.396Z,85.47
2018-04-14T23:48:40.298Z,85.73
2018-04-14T23:51:07.185Z,85.94
2018-04-14T23:53:34.109Z,85.85
2018-04-14T23:56:01.076Z,86.07
2018-04-14T23:58:28.166Z,86.22
